Matagami Airport
CYNM : now visible

Airfield :











YOU CAN JOIN US ON...

 
LOGIN :

Register | Disclaimer

   EN    FR    IT 

 









Legend :    VFR   Marginal VFR   IFR   Intensive IFR   Very Intensive IFR
Visi :
Ceiling :
>= 8 km
>= 3000ft
5 to 8 km
1000 to 3000 ft
1500m to 5 km
500 to 1000 ft
800 to 1500m
200 to 500 ft
< 800m
< 200 ft
Symbols :   Thunderstorms  Fog  Heavy snow  Heavy precipitations  Wind > 20 kt






- Airport Elevation : 918 ft
- IATA code : YNM


CYNM - Matagami

CURRENT METAR :
  • 021100Z AUTO 21009KT 180V250 9SM CLR 10/07 A2959 RMK SLP028

EXPIRED METARs :
  • 021000Z AUTO 19009KT 9SM SCT076 SCT089 08/06 A2960 RMK SLP032
  • 020900Z AUTO 17007KT 9SM BKN091 06/05 A2961 RMK SLP034

TAF N/A
CZUL FIR / North America



MET'MAP, your aeronautical weather chart ! - Copyright ORBIFLY December 2007 - Disclaimer

ORBIFLY MET'MAP TEAM :

Programming & Development : Alexandra Zaïnal
Original concept : Baudouin d'Aumeries
Technical & hardware support : Manuel Goepfert
Assistance : Marc-Olivier Méhu




SOURCES & CREDITS :

   NOAA       Earth
Advisory